Observation data for Northfield on 06/26/2019      Previous  Date       Current Mesonet Observations  Soil Data  Daily Summary Page  Observations in Plain Language
KNOR 260500Z 16005G10KT 25/10 A3002 RMK A01 T02510103  RH  041%=      5-min Rain = 0
KNOR 260505Z 17011KT 25/11 A3001 RMK A01 T02540106  RH  041%=      5-min Rain = 0
KNOR 260510Z 17013G18KT 26/11 A3001 RMK A01 T02600113  RH  041%=      5-min Rain = 0
KNOR 260515Z 17012KT 26/12 A3001 RMK A01 T02620115  RH  041%=      5-min Rain = 0
KNOR 260520Z 18011KT 26/12 A3001 RMK A01 T02600117  RH  042%=      5-min Rain = 0
KNOR 260525Z 18014G20KT 26/12 A30 RMK A01 T02620120  RH  043%=      5-min Rain = 0
KNOR 260530Z 17015G21KT 26/12 A30 RMK A01 T02640122  RH  043%=      5-min Rain = 0
KNOR 260535Z 18016G22KT 26/12 A30 RMK A01 T02640121  RH  042%=      5-min Rain = 0
KNOR 260540Z 18017G22KT 26/12 A2999 RMK A01 T02640122  RH  043%=      5-min Rain = 0
KNOR 260545Z 19016G23KT 26/12 A2999 RMK A01 T02620123  RH  044%=      5-min Rain = 0
KNOR 260550Z 19015G20KT 26/12 A2999 RMK A01 T02550121  RH  045%=      5-min Rain = 0
KNOR 260555Z 19014G19KT 25/12 A2999 RMK A01 T02540122  RH  045%=      5-min Rain = 0
KNOR 260600Z 18015G21KT 26/13 A2999 RMK A01 T02580126  RH  045%=      5-min Rain = 0
KNOR 260605Z 19015G21KT 26/13 A2999 RMK A01 T02590127  RH  046%=      5-min Rain = 0
KNOR 260610Z 20010KT 25/13 A2999 RMK A01 T02540126  RH  047%=      5-min Rain = 0
KNOR 260615Z 19012G17KT 25/13 A2998 RMK A01 T02500127  RH  048%=      5-min Rain = 0
KNOR 260620Z 19015G22KT 25/13 A2998 RMK A01 T02520130  RH  048%=      5-min Rain = 0
KNOR 260625Z 20014G20KT 25/13 A2998 RMK A01 T02510130  RH  049%=      5-min Rain = 0
KNOR 260630Z 20016G21KT 25/13 A2998 RMK A01 T02510132  RH  050%=      5-min Rain = 0
KNOR 260635Z 19013KT 25/13 A2998 RMK A01 T02490133  RH  051%=      5-min Rain = 0
KNOR 260640Z 19013G18KT 25/14 A2998 RMK A01 T02490135  RH  051%=      5-min Rain = 0
KNOR 260645Z 19013G18KT 25/14 A2998 RMK A01 T02470136  RH  052%=      5-min Rain = 0
KNOR 260650Z 19013KT 25/14 A2998 RMK A01 T02460137  RH  053%=      5-min Rain = 0
KNOR 260655Z 19014KT 25/14 A2998 RMK A01 T02460139  RH  053%=      5-min Rain = 0
KNOR 260700Z 19013G18KT 25/14 A2997 RMK A01 T02450139  RH  054%=      5-min Rain = 0
KNOR 260705Z 18014G19KT 24/14 A2997 RMK A01 T02440140  RH  054%=      5-min Rain = 0
KNOR 260710Z 18013G18KT 24/14 A2997 RMK A01 T02430141  RH  055%=      5-min Rain = 0
KNOR 260715Z 19012G17KT 24/14 A2997 RMK A01 T02420143  RH  056%=      5-min Rain = 0
KNOR 260720Z 18013G18KT 24/14 A2996 RMK A01 T02410143  RH  057%=      5-min Rain = 0
KNOR 260725Z 18014KT 24/14 A2995 RMK A01 T02380144  RH  058%=      5-min Rain = 0
KNOR 260730Z 17013G18KT 24/15 A2995 RMK A01 T02370146  RH  059%=      5-min Rain = 0
KNOR 260735Z 16012G18KT 24/15 A2996 RMK A01 T02370147  RH  060%=      5-min Rain = 0
KNOR 260740Z 16011G16KT 24/15 A2997 RMK A01 T02360149  RH  061%=      5-min Rain = 0
KNOR 260745Z 16011KT 24/15 A2997 RMK A01 T02360150  RH  061%=      5-min Rain = 0
KNOR 260750Z 17011KT 24/15 A2997 RMK A01 T02350150  RH  062%=      5-min Rain = 0
KNOR 260755Z 17010KT 24/15 A2997 RMK A01 T02350151  RH  062%=      5-min Rain = 0
KNOR 260800Z 17011KT 24/15 A2998 RMK A01 T02370152  RH  062%=      5-min Rain = 0
KNOR 260805Z 17011KT 24/15 A2998 RMK A01 T02390153  RH  061%=      5-min Rain = 0
KNOR 260810Z 17010KT 24/15 A2998 RMK A01 T02380153  RH  062%=      5-min Rain = 0
KNOR 260815Z 16008G13KT 24/15 A2999 RMK A01 T02370154  RH  062%=      5-min Rain = 0
KNOR 260820Z 16006KT 23/15 A2999 RMK A01 T02320154  RH  064%=      5-min Rain = 0
KNOR 260825Z 17007KT 23/15 A2999 RMK A01 T02290154  RH  065%=      5-min Rain = 0
KNOR 260830Z 18007KT 23/15 A2998 RMK A01 T02280154  RH  066%=      5-min Rain = 0
KNOR 260835Z 18008KT 23/16 A2998 RMK A01 T02300155  RH  066%=      5-min Rain = 0
KNOR 260840Z 18008KT 23/16 A2998 RMK A01 T02310155  RH  065%=      5-min Rain = 0
KNOR 260845Z 18008KT 23/16 A2998 RMK A01 T02320156  RH  065%=      5-min Rain = 0
KNOR 260850Z 16006KT 23/16 A2998 RMK A01 T02310156  RH  066%=      5-min Rain = 0
KNOR 260855Z 15004KT 23/16 A2998 RMK A01 T02280156  RH  067%=      5-min Rain = 0
KNOR 260900Z 17004KT 23/16 A2998 RMK A01 T02260156  RH  068%=      5-min Rain = 0
KNOR 260905Z 18005KT 22/16 A2998 RMK A01 T02240155  RH  068%=      5-min Rain = 0
KNOR 260910Z 20005KT 22/16 A2998 RMK A01 T02200155  RH  070%=      5-min Rain = 0
KNOR 260915Z 20004KT 22/16 A2998 RMK A01 T02190155  RH  070%=      5-min Rain = 0
KNOR 260920Z 20004KT 22/16 A2998 RMK A01 T02170155  RH  071%=      5-min Rain = 0
KNOR 260925Z 19003KT 22/16 A2998 RMK A01 T02160155  RH  072%=      5-min Rain = 0
KNOR 260930Z 16003KT 22/16 A2999 RMK A01 T02160156  RH  072%=      5-min Rain = 0
KNOR 260935Z 15002KT 22/16 A2999 RMK A01 T02150156  RH  072%=      5-min Rain = 0
KNOR 260940Z 16003KT 22/16 A2999 RMK A01 T02150156  RH  072%=      5-min Rain = 0
KNOR 260945Z 19005KT 22/16 A2999 RMK A01 T02170156  RH  072%=      5-min Rain = 0
KNOR 260950Z 18006KT 22/16 A30 RMK A01 T02150157  RH  073%=      5-min Rain = 0
KNOR 260955Z 18006KT 21/16 A30 RMK A01 T02110156  RH  074%=      5-min Rain = 0
KNOR 261000Z 18007KT 21/16 A30 RMK A01 T02120158  RH  074%=      5-min Rain = 0
KNOR 261005Z 19007KT 22/16 A30 RMK A01 T02170159  RH  073%=      5-min Rain = 0
KNOR 261010Z 18007KT 22/16 A30 RMK A01 T02190160  RH  072%=      5-min Rain = 0
KNOR 261015Z 18008KT 22/16 A30 RMK A01 T02190160  RH  072%=      5-min Rain = 0
KNOR 261020Z 17007KT 22/16 A30 RMK A01 T02170160  RH  073%=      5-min Rain = 0
KNOR 261025Z 17006KT 21/16 A3001 RMK A01 T02110160  RH  076%=      5-min Rain = 0
KNOR 261030Z 17005KT 21/16 A3001 RMK A01 T02090160  RH  077%=      5-min Rain = 0
KNOR 261035Z 16005KT 21/16 A3001 RMK A01 T02080161  RH  078%=      5-min Rain = 0
KNOR 261040Z 16006KT 21/16 A3001 RMK A01 T02060161  RH  079%=      5-min Rain = 0
KNOR 261045Z 16007KT 21/16 A3002 RMK A01 T02060162  RH  079%=      5-min Rain = 0
KNOR 261050Z 16006KT 21/16 A3002 RMK A01 T02050162  RH  080%=      5-min Rain = 0
KNOR 261055Z 16006KT 21/16 A3002 RMK A01 T02060162  RH  080%=      5-min Rain = 0
KNOR 261100Z 16007KT 21/16 A3003 RMK A01 T02050162  RH  080%=      5-min Rain = 0
KNOR 261105Z 17007KT 20/16 A3003 RMK A01 T02020162  RH  082%=      5-min Rain = 0
KNOR 261110Z 17008KT 20/16 A3003 RMK A01 T02020163  RH  082%=      5-min Rain = 0
KNOR 261115Z 17008KT 20/16 A3003 RMK A01 T02010163  RH  082%=      5-min Rain = 0
KNOR 261120Z 17007KT 20/16 A3003 RMK A01 T02020163  RH  082%=      5-min Rain = 0
KNOR 261125Z 17007KT 20/16 A3004 RMK A01 T02030163  RH  082%=      5-min Rain = 0
KNOR 261130Z 16007KT 20/16 A3004 RMK A01 T02020164  RH  082%=      5-min Rain = 0
KNOR 261135Z 16006KT 20/16 A3004 RMK A01 T02020163  RH  082%=      5-min Rain = 0
KNOR 261140Z 17006KT 20/16 A3004 RMK A01 T02010164  RH  083%=      5-min Rain = 0
KNOR 261145Z 17006KT 20/16 A3005 RMK A01 T02010164  RH  083%=      5-min Rain = 0
KNOR 261150Z 17005KT 20/16 A3005 RMK A01 T02020164  RH  083%=      5-min Rain = 0
KNOR 261155Z 19005KT 20/16 A3005 RMK A01 T02040164  RH  082%=      5-min Rain = 0
KNOR 261200Z 18006KT 21/17 A3005 RMK A01 T02060165  RH  081%=      5-min Rain = 0
KNOR 261205Z 18005KT 21/17 A3005 RMK A01 T02070165  RH  081%=      5-min Rain = 0
KNOR 261210Z 18005KT 21/17 A3006 RMK A01 T02100166  RH  080%=      5-min Rain = 0
KNOR 261215Z 17005KT 21/17 A3006 RMK A01 T02120167  RH  079%=      5-min Rain = 0
KNOR 261220Z 19005KT 21/17 A3005 RMK A01 T02140167  RH  078%=      5-min Rain = 0
KNOR 261225Z 18005KT 22/17 A3005 RMK A01 T02160167  RH  078%=      5-min Rain = 0
KNOR 261230Z 19005KT 22/17 A3005 RMK A01 T02180169  RH  077%=      5-min Rain = 0
KNOR 261235Z 18006KT 22/17 A3005 RMK A01 T02220170  RH  076%=      5-min Rain = 0
KNOR 261240Z 18007KT 23/17 A3005 RMK A01 T02250170  RH  075%=      5-min Rain = 0
KNOR 261245Z 17006KT 23/17 A3006 RMK A01 T02270171  RH  074%=      5-min Rain = 0
KNOR 261250Z 16007KT 23/17 A3006 RMK A01 T02300171  RH  073%=      5-min Rain = 0
KNOR 261255Z 17007KT 23/17 A3006 RMK A01 T02310170  RH  072%=      5-min Rain = 0
KNOR 261300Z 17008KT 23/17 A3006 RMK A01 T02330169  RH  071%=      5-min Rain = 0
KNOR 261305Z 17008KT 24/17 A3006 RMK A01 T02360170  RH  070%=      5-min Rain = 0
KNOR 261310Z 17008KT 24/17 A3006 RMK A01 T02400171  RH  069%=      5-min Rain = 0
KNOR 261315Z 18007KT 24/17 A3006 RMK A01 T02420171  RH  068%=      5-min Rain = 0
KNOR 261320Z 19008KT 24/17 A3006 RMK A01 T02430170  RH  067%=      5-min Rain = 0
KNOR 261325Z 20008KT 24/17 A3006 RMK A01 T02440171  RH  067%=      5-min Rain = 0
KNOR 261330Z 20007KT 25/17 A3006 RMK A01 T02480173  RH  066%=      5-min Rain = 0
KNOR 261335Z 20008KT 25/17 A3007 RMK A01 T02480172  RH  066%=      5-min Rain = 0
KNOR 261340Z 21007KT 25/18 A3007 RMK A01 T02540175  RH  065%=      5-min Rain = 0
KNOR 261345Z 22008KT 26/17 A3007 RMK A01 T02570174  RH  063%=      5-min Rain = 0
KNOR 261350Z 22009KT 26/17 A3007 RMK A01 T02610174  RH  062%=      5-min Rain = 0
KNOR 261355Z 22010KT 26/17 A3008 RMK A01 T02620172  RH  061%=      5-min Rain = 0
KNOR 261400Z 21010KT 26/17 A3008 RMK A01 T02640173  RH  061%=      5-min Rain = 0
KNOR 261405Z 22010KT 27/17 A3008 RMK A01 T02660173  RH  060%=      5-min Rain = 0
KNOR 261410Z 22010KT 27/17 A3008 RMK A01 T02660173  RH  060%=      5-min Rain = 0
KNOR 261415Z 23010KT 27/17 A3008 RMK A01 T02680173  RH  059%=      5-min Rain = 0
KNOR 261420Z 22011G16KT 27/17 A3008 RMK A01 T02700173  RH  058%=      5-min Rain = 0
KNOR 261425Z 22010KT 27/17 A3008 RMK A01 T02710174  RH  058%=      5-min Rain = 0
KNOR 261430Z 21009KT 27/18 A3008 RMK A01 T02730175  RH  058%=      5-min Rain = 0
KNOR 261435Z 22009G14KT 28/18 A3009 RMK A01 T02780176  RH  057%=      5-min Rain = 0
KNOR 261440Z 22010KT 28/17 A3009 RMK A01 T02790174  RH  056%=      5-min Rain = 0
KNOR 261445Z 21010KT 28/17 A3009 RMK A01 T02800172  RH  055%=      5-min Rain = 0
KNOR 261450Z 22007KT 28/18 A3009 RMK A01 T02840175  RH  054%=      5-min Rain = 0
KNOR 261455Z 21008KT 28/17 A3009 RMK A01 T02830173  RH  054%=      5-min Rain = 0
KNOR 261500Z 22007KT 29/18 A3009 RMK A01 T02890175  RH  053%=      5-min Rain = 0
KNOR 261505Z 20009KT 29/17 A3009 RMK A01 T02890172  RH  052%=      5-min Rain = 0
KNOR 261510Z 20009KT 29/17 A3009 RMK A01 T02910172  RH  051%=      5-min Rain = 0
KNOR 261515Z 21010KT 29/17 A3009 RMK A01 T02920171  RH  050%=      5-min Rain = 0
KNOR 261520Z 20007G14KT 30/17 A3009 RMK A01 T02950173  RH  050%=      5-min Rain = 0
KNOR 261525Z 19009KT 30/17 A3009 RMK A01 T02950169  RH  049%=      5-min Rain = 0
KNOR 261530Z 19008G13KT 30/17 A3009 RMK A01 T02960170  RH  049%=      5-min Rain = 0
KNOR 261535Z 19007G12KT 30/17 A3009 RMK A01 T02980169  RH  048%=      5-min Rain = 0
KNOR 261540Z 20009G14KT 30/17 A3009 RMK A01 T03020170  RH  047%=      5-min Rain = 0
KNOR 261545Z 17010G16KT 30/17 A3009 RMK A01 T03040167  RH  046%=      5-min Rain = 0
KNOR 261550Z 19010G16KT 31/16 A3009 RMK A01 T03050163  RH  044%=      5-min Rain = 0
KNOR 261555Z 19008G13KT 30/17 A3009 RMK A01 T03040167  RH  046%=      5-min Rain = 0
KNOR 261600Z 20010KT 31/16 A3009 RMK A01 T03060164  RH  045%=      5-min Rain = 0
KNOR 261605Z 20010KT 31/17 A3009 RMK A01 T03080167  RH  045%=      5-min Rain = 0
KNOR 261610Z 18008G13KT 31/17 A3009 RMK A01 T03130171  RH  045%=      5-min Rain = 0
KNOR 261615Z 17010G15KT 31/17 A3009 RMK A01 T03120170  RH  045%=      5-min Rain = 0
KNOR 261620Z 20009KT 31/17 A3009 RMK A01 T03100167  RH  044%=      5-min Rain = 0
KNOR 261625Z 18011KT 31/17 A3009 RMK A01 T03090165  RH  044%=      5-min Rain = 0
KNOR 261630Z 18009KT 31/17 A3009 RMK A01 T03130169  RH  044%=      5-min Rain = 0
KNOR 261635Z 17009KT 31/17 A3009 RMK A01 T03130168  RH  044%=      5-min Rain = 0
KNOR 261640Z 17013KT 31/17 A3009 RMK A01 T03120165  RH  043%=      5-min Rain = 0
KNOR 261645Z 17010G19KT 31/17 A3009 RMK A01 T03130165  RH  043%=      5-min Rain = 0
KNOR 261650Z 18012G17KT 32/16 A3009 RMK A01 T03160162  RH  042%=      5-min Rain = 0
KNOR 261655Z 16011KT 32/17 A3009 RMK A01 T03160168  RH  043%=      5-min Rain = 0
KNOR 261700Z 16012KT 32/17 A3009 RMK A01 T03190168  RH  042%=      5-min Rain = 0
KNOR 261705Z 16012G17KT 32/16 A3009 RMK A01 T03170163  RH  042%=      5-min Rain = 0
KNOR 261710Z 19011G17KT 32/17 A3009 RMK A01 T03190165  RH  042%=      5-min Rain = 0
KNOR 261715Z 18013G19KT 32/16 A3009 RMK A01 T03170162  RH  041%=      5-min Rain = 0
KNOR 261720Z 17010G15KT 32/17 A3009 RMK A01 T03190168  RH  043%=      5-min Rain = 0
KNOR 261725Z 17012G17KT 32/17 A3009 RMK A01 T03190167  RH  042%=      5-min Rain = 0
KNOR 261730Z 16013G18KT 32/17 A3008 RMK A01 T03180165  RH  042%=      5-min Rain = 0
KNOR 261735Z 17013G18KT 32/16 A3008 RMK A01 T03220164  RH  041%=      5-min Rain = 0
KNOR 261740Z 16012G18KT 32/17 A3008 RMK A01 T03220165  RH  041%=      5-min Rain = 0
KNOR 261745Z 18012KT 32/16 A3008 RMK A01 T03220164  RH  041%=      5-min Rain = 0
KNOR 261750Z 17012G17KT 33/17 A3008 RMK A01 T03250165  RH  040%=      5-min Rain = 0
KNOR 261755Z 16013KT 32/17 A3008 RMK A01 T03230166  RH  041%=      5-min Rain = 0
KNOR 261800Z 17012G17KT 32/17 A3008 RMK A01 T03230166  RH  041%=      5-min Rain = 0
KNOR 261805Z 18013G18KT 33/16 A3008 RMK A01 T03260162  RH  039%=      5-min Rain = 0
KNOR 261810Z 18012G20KT 32/16 A3008 RMK A01 T03240164  RH  040%=      5-min Rain = 0
KNOR 261815Z 16014G19KT 32/16 A3008 RMK A01 T03240157  RH  038%=      5-min Rain = 0
KNOR 261820Z 17012G17KT 33/16 A3008 RMK A01 T03280163  RH  039%=      5-min Rain = 0
KNOR 261825Z 17011G19KT 33/17 A3008 RMK A01 T03270165  RH  040%=      5-min Rain = 0
KNOR 261830Z 18012G18KT 33/16 A3008 RMK A01 T03320161  RH  038%=      5-min Rain = 0
KNOR 261835Z 19012G18KT 33/16 A3008 RMK A01 T03280160  RH  038%=      5-min Rain = 0
KNOR 261840Z 16010KT 33/16 A3007 RMK A01 T03280162  RH  039%=      5-min Rain = 0
KNOR 261845Z 17013G22KT 33/16 A3007 RMK A01 T03300162  RH  038%=      5-min Rain = 0
KNOR 261850Z 17012KT 33/16 A3008 RMK A01 T03290163  RH  039%=      5-min Rain = 0
KNOR 261855Z 16012G18KT 33/16 A3007 RMK A01 T03310161  RH  038%=      5-min Rain = 0
KNOR 261900Z 17012G17KT 33/16 A3007 RMK A01 T03320161  RH  038%=      5-min Rain = 0
KNOR 261905Z 16012G17KT 33/16 A3007 RMK A01 T03320158  RH  037%=      5-min Rain = 0
KNOR 261910Z 17012G17KT 33/17 A3007 RMK A01 T03340166  RH  039%=      5-min Rain = 0
KNOR 261915Z 16013G18KT 33/16 A3007 RMK A01 T03340160  RH  037%=      5-min Rain = 0
KNOR 261920Z 17013KT 33/15 A3007 RMK A01 T03330153  RH  035%=      5-min Rain = 0
KNOR 261925Z 16012G19KT 33/16 A3007 RMK A01 T03340160  RH  037%=      5-min Rain = 0
KNOR 261930Z 17011G17KT 34/17 A3007 RMK A01 T03370165  RH  037%=      5-min Rain = 0
KNOR 261935Z 15012G18KT 34/16 A3007 RMK A01 T03360156  RH  036%=      5-min Rain = 0
KNOR 261940Z 16013G21KT 34/16 A3007 RMK A01 T03370158  RH  036%=      5-min Rain = 0
KNOR 261945Z 16012G18KT 34/16 A3006 RMK A01 T03370162  RH  037%=      5-min Rain = 0
KNOR 261950Z 18012G18KT 33/16 A3006 RMK A01 T03340163  RH  038%=      5-min Rain = 0
KNOR 261955Z 17013G18KT 34/16 A3006 RMK A01 T03370158  RH  036%=      5-min Rain = 0
KNOR 262000Z 18013G18KT 34/16 A3006 RMK A01 T03370159  RH  036%=      5-min Rain = 0
KNOR 262005Z 17014G20KT 34/16 A3006 RMK A01 T03360159  RH  036%=      5-min Rain = 0
KNOR 262010Z 18013G22KT 34/16 A3006 RMK A01 T03370160  RH  036%=      5-min Rain = 0
KNOR 262015Z 17011G18KT 34/16 A3006 RMK A01 T03360160  RH  037%=      5-min Rain = 0
KNOR 262020Z 16015G20KT 34/16 A3006 RMK A01 T03370155  RH  035%=      5-min Rain = 0
KNOR 262025Z 16014G19KT 34/16 A3006 RMK A01 T03380155  RH  035%=      5-min Rain = 0
KNOR 262030Z 16014G21KT 34/16 A3006 RMK A01 T03400155  RH  035%=      5-min Rain = 0
KNOR 262035Z 16015G21KT 34/15 A3006 RMK A01 T03400153  RH  034%=      5-min Rain = 0
KNOR 262040Z 17013G22KT 34/16 A3006 RMK A01 T03380158  RH  036%=      5-min Rain = 0
KNOR 262045Z 16013G21KT 34/16 A3006 RMK A01 T03390156  RH  035%=      5-min Rain = 0
KNOR 262050Z 17014G20KT 34/16 A3005 RMK A01 T03400156  RH  035%=      5-min Rain = 0
KNOR 262055Z 17013G21KT 34/16 A3005 RMK A01 T03380156  RH  035%=      5-min Rain = 0
KNOR 262100Z 16013G21KT 34/16 A3005 RMK A01 T03400160  RH  036%=      5-min Rain = 0
KNOR 262105Z 15013G18KT 34/16 A3005 RMK A01 T03420160  RH  036%=      5-min Rain = 0
KNOR 262110Z 17013G23KT 34/16 A3005 RMK A01 T03410162  RH  036%=      5-min Rain = 0
KNOR 262115Z 16015G21KT 34/16 A3005 RMK A01 T03420159  RH  035%=      5-min Rain = 0
KNOR 262120Z 16013G19KT 34/16 A3005 RMK A01 T03390158  RH  036%=      5-min Rain = 0
KNOR 262125Z 15013G19KT 34/16 A3004 RMK A01 T03380156  RH  035%=      5-min Rain = 0
KNOR 262130Z 16015KT 34/16 A3004 RMK A01 T03400160  RH  036%=      5-min Rain = 0
KNOR 262135Z 15012G20KT 34/16 A3004 RMK A01 T03380160  RH  036%=      5-min Rain = 0
KNOR 262140Z 17013G20KT 34/16 A3004 RMK A01 T03390162  RH  036%=      5-min Rain = 0
KNOR 262145Z 16013G18KT 34/16 A3004 RMK A01 T03380162  RH  037%=      5-min Rain = 0
KNOR 262150Z 16014G22KT 34/16 A3004 RMK A01 T03390162  RH  037%=      5-min Rain = 0
KNOR 262155Z 16012G18KT 34/17 A3004 RMK A01 T03420165  RH  036%=      5-min Rain = 0
KNOR 262200Z 17014G19KT 34/16 A3004 RMK A01 T03410162  RH  036%=      5-min Rain = 0
KNOR 262205Z 17013G19KT 34/16 A3004 RMK A01 T03400162  RH  036%=      5-min Rain = 0
KNOR 262210Z 16012G20KT 34/16 A3004 RMK A01 T03380162  RH  037%=      5-min Rain = 0
KNOR 262215Z 16012G18KT 34/16 A3003 RMK A01 T03400164  RH  037%=      5-min Rain = 0
KNOR 262220Z 17013G20KT 34/16 A3003 RMK A01 T03390164  RH  037%=      5-min Rain = 0
KNOR 262225Z 15015G20KT 34/16 A3003 RMK A01 T03350162  RH  037%=      5-min Rain = 0
KNOR 262230Z 15012G17KT 34/16 A3003 RMK A01 T03360164  RH  037%=      5-min Rain = 0
KNOR 262235Z 15012G18KT 34/16 A3003 RMK A01 T03360163  RH  037%=      5-min Rain = 0
KNOR 262240Z 17015G20KT 34/16 A3003 RMK A01 T03370163  RH  037%=      5-min Rain = 0
KNOR 262245Z 17012G18KT 34/16 A3003 RMK A01 T03370163  RH  037%=      5-min Rain = 0
KNOR 262250Z 16013G19KT 34/16 A3003 RMK A01 T03360164  RH  037%=      5-min Rain = 0
KNOR 262255Z 15013G18KT 33/17 A3002 RMK A01 T03320165  RH  039%=      5-min Rain = 0
KNOR 262300Z 15015KT 33/17 A3002 RMK A01 T03320165  RH  039%=      5-min Rain = 0
KNOR 262305Z 16014G20KT 34/17 A3002 RMK A01 T03350166  RH  038%=      5-min Rain = 0
KNOR 262310Z 16016KT 33/16 A3002 RMK A01 T03270164  RH  040%=      5-min Rain = 0
KNOR 262315Z 17013G18KT 33/17 A3002 RMK A01 T03280166  RH  040%=      5-min Rain = 0
KNOR 262320Z 16017G22KT 33/17 A3002 RMK A01 T03290165  RH  039%=      5-min Rain = 0
KNOR 262325Z 15016KT 33/16 A3002 RMK A01 T03260164  RH  040%=      5-min Rain = 0
KNOR 262330Z 16015G22KT 33/16 A3001 RMK A01 T03260164  RH  040%=      5-min Rain = 0
KNOR 262335Z 15014G22KT 33/17 A3001 RMK A01 T03270165  RH  040%=      5-min Rain = 0
KNOR 262340Z 16016G21KT 33/16 A3001 RMK A01 T03250163  RH  040%=      5-min Rain = 0
KNOR 262345Z 15014G20KT 32/16 A3001 RMK A01 T03220163  RH  040%=      5-min Rain = 0
KNOR 262350Z 16017KT 32/16 A3001 RMK A01 T03210164  RH  041%=      5-min Rain = 0
KNOR 262355Z 16016G21KT 32/16 A3001 RMK A01 T03210163  RH  041%=      5-min Rain = 0
KNOR 270000Z 16015G21KT 32/16 A3001 RMK A01 T03220161  RH  040%=      5-min Rain = 0
KNOR 270005Z 16014KT 32/16 A3001 RMK A01 T03200161  RH  040%=      5-min Rain = 0
KNOR 270010Z 15015KT 32/16 A3002 RMK A01 T03150163  RH  042%=      5-min Rain = 0
KNOR 270015Z 15017G23KT 31/16 A3002 RMK A01 T03130162  RH  042%=      5-min Rain = 0
KNOR 270020Z 16015G20KT 31/16 A3002 RMK A01 T03130160  RH  042%=      5-min Rain = 0
KNOR 270025Z 15014G20KT 31/16 A3002 RMK A01 T03130160  RH  042%=      5-min Rain = 0
KNOR 270030Z 16014G19KT 31/16 A3002 RMK A01 T03130162  RH  042%=      5-min Rain = 0
KNOR 270035Z 16013G18KT 31/16 A3002 RMK A01 T03120160  RH  042%=      5-min Rain = 0
KNOR 270040Z 16013G19KT 31/16 A3003 RMK A01 T03100160  RH  042%=      5-min Rain = 0
KNOR 270045Z 15015KT 31/16 A3003 RMK A01 T03070158  RH  043%=      5-min Rain = 0
KNOR 270050Z 15014G20KT 30/16 A3003 RMK A01 T03020158  RH  044%=      5-min Rain = 0
KNOR 270055Z 16013KT 30/16 A3003 RMK A01 T03000157  RH  044%=      5-min Rain = 0
KNOR 270100Z 16012KT 30/16 A3003 RMK A01 T02970158  RH  045%=      5-min Rain = 0
KNOR 270105Z 16013G18KT 30/16 A3004 RMK A01 T02970158  RH  045%=      5-min Rain = 0
KNOR 270110Z 16011KT 30/16 A3004 RMK A01 T02960159  RH  046%=      5-min Rain = 0
KNOR 270115Z 16010KT 29/16 A3004 RMK A01 T02930161  RH  047%=      5-min Rain = 0
KNOR 270120Z 16009KT 29/16 A3005 RMK A01 T02900163  RH  048%=      5-min Rain = 0
KNOR 270125Z 16010KT 29/16 A3005 RMK A01 T02890162  RH  048%=      5-min Rain = 0
KNOR 270130Z 16010KT 29/16 A3005 RMK A01 T02880162  RH  049%=      5-min Rain = 0
KNOR 270135Z 16010KT 29/16 A3005 RMK A01 T02860162  RH  049%=      5-min Rain = 0
KNOR 270140Z 16009KT 28/16 A3005 RMK A01 T02840162  RH  050%=      5-min Rain = 0
KNOR 270145Z 16009KT 28/16 A3006 RMK A01 T02820163  RH  051%=      5-min Rain = 0
KNOR 270150Z 16008KT 28/16 A3006 RMK A01 T02790163  RH  052%=      5-min Rain = 0
KNOR 270155Z 16007KT 28/16 A3006 RMK A01 T02760164  RH  053%=      5-min Rain = 0
KNOR 270200Z 15007KT 27/17 A3006 RMK A01 T02730165  RH  054%=      5-min Rain = 0
KNOR 270205Z 15007KT 27/17 A3006 RMK A01 T02700165  RH  055%=      5-min Rain = 0
KNOR 270210Z 15007KT 27/17 A3006 RMK A01 T02680166  RH  056%=      5-min Rain = 0
KNOR 270215Z 15007KT 27/17 A3006 RMK A01 T02660166  RH  057%=      5-min Rain = 0
KNOR 270220Z 15007KT 26/17 A3007 RMK A01 T02640166  RH  058%=      5-min Rain = 0
KNOR 270225Z 14007KT 26/17 A3007 RMK A01 T02620166  RH  058%=      5-min Rain = 0
KNOR 270230Z 14008KT 26/17 A3007 RMK A01 T02610166  RH  059%=      5-min Rain = 0
KNOR 270235Z 14008KT 26/17 A3007 RMK A01 T02600167  RH  059%=      5-min Rain = 0
KNOR 270240Z 14009KT 26/17 A3007 RMK A01 T02600167  RH  059%=      5-min Rain = 0
KNOR 270245Z 15009KT 26/17 A3007 RMK A01 T02590167  RH  060%=      5-min Rain = 0
KNOR 270250Z 15009KT 26/17 A3007 RMK A01 T02570168  RH  060%=      5-min Rain = 0
KNOR 270255Z 15008KT 26/17 A3008 RMK A01 T02560168  RH  061%=      5-min Rain = 0
KNOR 270300Z 15009KT 26/17 A3008 RMK A01 T02560168  RH  061%=      5-min Rain = 0
KNOR 270305Z 14009KT 26/17 A3008 RMK A01 T02560168  RH  061%=      5-min Rain = 0
KNOR 270310Z 15009KT 26/17 A3009 RMK A01 T02570169  RH  061%=      5-min Rain = 0
KNOR 270315Z 15009KT 26/17 A3009 RMK A01 T02560169  RH  062%=      5-min Rain = 0
KNOR 270320Z 15008KT 26/17 A3009 RMK A01 T02550170  RH  062%=      5-min Rain = 0
KNOR 270325Z 15008KT 25/17 A301 RMK A01 T02530170  RH  063%=      5-min Rain = 0
KNOR 270330Z 15009KT 25/17 A301 RMK A01 T02520171  RH  064%=      5-min Rain = 0
KNOR 270335Z 15008KT 25/17 A301 RMK A01 T02510171  RH  064%=      5-min Rain = 0
KNOR 270340Z 15008KT 25/17 A3011 RMK A01 T02500171  RH  065%=      5-min Rain = 0
KNOR 270345Z 16008KT 25/17 A3011 RMK A01 T02490171  RH  065%=      5-min Rain = 0
KNOR 270350Z 16008KT 25/17 A3012 RMK A01 T02480172  RH  066%=      5-min Rain = 0
KNOR 270355Z 16009KT 25/17 A3012 RMK A01 T02490172  RH  066%=      5-min Rain = 0
KNOR 270400Z 16009KT 25/17 A3012 RMK A01 T02480173  RH  066%=      5-min Rain = 0
KNOR 270405Z 16008KT 25/17 A3012 RMK A01 T02480173  RH  066%=      5-min Rain = 0
KNOR 270410Z 16009KT 25/17 A3012 RMK A01 T02480174  RH  067%=      5-min Rain = 0
KNOR 270415Z 16009KT 25/18 A3012 RMK A01 T02490175  RH  067%=      5-min Rain = 0
KNOR 270420Z 16009KT 25/18 A3012 RMK A01 T02490176  RH  067%=      5-min Rain = 0
KNOR 270425Z 16009KT 25/18 A3013 RMK A01 T02490176  RH  067%=      5-min Rain = 0
KNOR 270430Z 16008KT 25/18 A3013 RMK A01 T02490177  RH  068%=      5-min Rain = 0
KNOR 270435Z 16007KT 25/18 A3013 RMK A01 T02480177  RH  068%=      5-min Rain = 0
KNOR 270440Z 15006KT 25/18 A3013 RMK A01 T02460177  RH  069%=      5-min Rain = 0
KNOR 270445Z 15007KT 24/18 A3013 RMK A01 T02440177  RH  070%=      5-min Rain = 0
KNOR 270450Z 15008KT 24/18 A3013 RMK A01 T02430177  RH  070%=      5-min Rain = 0
KNOR 270455Z 16009KT 24/18 A3012 RMK A01 T02430178  RH  071%=      5-min Rain = 0

Page generated in 0.0096 seconds.